createdAt,value
2022-12-06T00:01:51.256Z,20.02
2022-12-06T00:04:18.933Z,18.35
2022-12-06T00:06:48.844Z,20.95
2022-12-06T00:09:19.263Z,20.58
2022-12-06T00:11:46.568Z,17.60
2022-12-06T00:14:14.265Z,19.10
2022-12-06T00:16:41.734Z,19.40
2022-12-06T00:19:11.568Z,18.40
2022-12-06T00:21:38.886Z,19.80
2022-12-06T00:24:08.876Z,19.20
2022-12-06T00:26:42.356Z,18.00
2022-12-06T00:29:13.744Z,19.38
2022-12-06T00:31:41.235Z,21.08
2022-12-06T00:34:08.626Z,21.40
2022-12-06T00:36:38.464Z,19.73
2022-12-06T00:39:11.257Z,19.55
2022-12-06T00:41:38.697Z,18.15
2022-12-06T00:44:06.193Z,18.77
2022-12-06T00:46:34.243Z,18.50
2022-12-06T00:49:03.570Z,18.40
2022-12-06T00:51:32.637Z,17.80
2022-12-06T00:54:00.059Z,17.35
2022-12-06T00:56:27.751Z,17.80
2022-12-06T00:58:55.295Z,18.73
2022-12-06T01:01:23.832Z,17.02
2022-12-06T01:03:53.451Z,17.55
2022-12-06T01:06:27.360Z,16.90
2022-12-06T01:09:00.485Z,17.08
2022-12-06T01:11:29.004Z,16.55
2022-12-06T01:13:56.814Z,15.18
2022-12-06T01:16:27.144Z,16.60
2022-12-06T01:18:57.712Z,16.42
2022-12-06T01:21:26.548Z,16.40
2022-12-06T01:23:56.525Z,17.00
2022-12-06T01:26:30.219Z,16.13
2022-12-06T01:28:58.976Z,15.90
2022-12-06T01:31:30.839Z,17.30
2022-12-06T01:34:03.091Z,15.32
2022-12-06T01:36:30.405Z,17.90
2022-12-06T01:39:01.001Z,17.02
2022-12-06T01:41:28.566Z,15.40
2022-12-06T01:43:56.994Z,16.13
2022-12-06T01:46:27.408Z,16.15
2022-12-06T01:49:05.490Z,16.25
2022-12-06T01:51:33.489Z,16.08
2022-12-06T01:54:03.615Z,16.23
2022-12-06T01:56:31.478Z,16.35
2022-12-06T01:59:00.039Z,15.95
2022-12-06T02:01:30.079Z,15.70
2022-12-06T02:03:59.851Z,16.58
2022-12-06T02:06:29.504Z,16.55
2022-12-06T02:08:59.831Z,16.20
2022-12-06T02:11:30.753Z,18.33
2022-12-06T02:14:04.542Z,18.10
2022-12-06T02:16:57.677Z,18.10
2022-12-06T02:19:56.609Z,17.38
2022-12-06T02:22:42.410Z,17.90
2022-12-06T02:25:33.971Z,17.13
2022-12-06T02:28:36.949Z,17.42
2022-12-06T02:31:27.212Z,19.42
2022-12-06T02:33:59.218Z,18.92
2022-12-06T02:36:32.352Z,18.45
2022-12-06T02:39:14.538Z,18.58
2022-12-06T02:41:48.765Z,17.05
2022-12-06T02:44:28.262Z,17.35
2022-12-06T02:46:57.438Z,19.77
2022-12-06T02:49:27.984Z,16.92
2022-12-06T02:51:56.945Z,16.55
2022-12-06T02:54:25.722Z,15.20
2022-12-06T02:56:53.146Z,16.83
2022-12-06T02:59:20.527Z,14.95
2022-12-06T03:01:52.643Z,19.92
2022-12-06T03:04:47.398Z,16.67
2022-12-06T03:07:45.033Z,15.20
2022-12-06T03:10:18.280Z,18.48
2022-12-06T03:13:16.574Z,16.83
2022-12-06T03:16:00.016Z,16.00
2022-12-06T03:18:55.524Z,21.15
2022-12-06T03:23:54.579Z,13.07
2022-12-06T03:26:26.862Z,18.13
2022-12-06T03:28:56.776Z,27.48
2022-12-06T03:31:25.665Z,14.02
2022-12-06T03:34:20.648Z,13.23
2022-12-06T03:36:50.211Z,12.95
2022-12-06T03:39:33.871Z,12.52
2022-12-06T03:42:03.002Z,9.90
2022-12-06T03:44:30.736Z,10.65
2022-12-06T03:47:08.888Z,10.13
2022-12-06T03:49:46.095Z,9.57
2022-12-06T03:52:13.380Z,11.27
2022-12-06T03:54:42.594Z,9.85
2022-12-06T03:57:10.502Z,9.40
2022-12-06T03:59:37.944Z,11.65
2022-12-06T04:02:05.350Z,10.38
2022-12-06T04:04:33.014Z,9.48
2022-12-06T04:07:00.277Z,9.65
2022-12-06T04:09:46.149Z,9.52
2022-12-06T04:12:32.033Z,9.70
2022-12-06T04:14:59.371Z,9.85
2022-12-06T04:17:44.942Z,9.73
2022-12-06T04:20:12.425Z,10.00
2022-12-06T04:22:58.497Z,10.15
2022-12-06T04:25:25.773Z,9.57
2022-12-06T04:28:11.581Z,10.27
2022-12-06T04:30:57.505Z,10.05
2022-12-06T04:33:43.297Z,9.88
2022-12-06T04:36:29.408Z,10.25
2022-12-06T04:38:56.759Z,9.73
2022-12-06T04:41:42.617Z,10.30
2022-12-06T04:44:10.146Z,9.48
2022-12-06T04:46:37.507Z,9.05
2022-12-06T04:49:04.852Z,10.13
2022-12-06T04:51:33.228Z,8.95
2022-12-06T04:54:00.651Z,9.25
2022-12-06T04:56:28.331Z,8.95
2022-12-06T04:58:55.616Z,9.68
2022-12-06T05:01:23.023Z,8.98
2022-12-06T05:03:50.441Z,8.57
2022-12-06T05:06:17.681Z,9.18
2022-12-06T05:08:45.006Z,9.07
2022-12-06T05:11:12.388Z,8.93
2022-12-06T05:13:39.630Z,10.15
2022-12-06T05:16:08.162Z,9.25
2022-12-06T05:18:35.894Z,9.45
2022-12-06T05:21:29.583Z,9.10
2022-12-06T05:23:57.098Z,8.73
2022-12-06T05:26:27.651Z,9.50
2022-12-06T05:28:55.563Z,9.38
2022-12-06T05:31:23.991Z,9.43
2022-12-06T05:33:52.474Z,9.68
2022-12-06T05:36:25.432Z,8.65
2022-12-06T05:38:54.023Z,8.63
2022-12-06T05:41:22.840Z,8.88
2022-12-06T05:43:50.246Z,8.50
2022-12-06T05:46:17.644Z,8.73
2022-12-06T05:48:45.166Z,9.95
2022-12-06T05:51:12.533Z,9.88
2022-12-06T05:53:40.843Z,9.98
2022-12-06T05:56:11.184Z,9.75
2022-12-06T05:58:39.204Z,9.90
2022-12-06T06:01:08.256Z,10.90
2022-12-06T06:03:36.123Z,10.48
2022-12-06T06:06:04.225Z,11.13
2022-12-06T06:08:31.997Z,10.77
2022-12-06T06:11:00.169Z,11.10
2022-12-06T06:13:27.531Z,10.73
2022-12-06T06:15:55.067Z,10.88
2022-12-06T06:18:23.247Z,10.80
2022-12-06T06:20:53.078Z,11.07
2022-12-06T06:23:21.529Z,10.77
2022-12-06T06:25:48.907Z,12.02
2022-12-06T06:28:17.144Z,10.85
2022-12-06T06:30:44.753Z,11.82
2022-12-06T06:33:12.418Z,10.75
2022-12-06T06:35:40.360Z,10.95
2022-12-06T06:38:07.949Z,11.07
2022-12-06T06:40:35.886Z,11.32
2022-12-06T06:43:18.316Z,11.95
2022-12-06T06:45:57.548Z,11.23
2022-12-06T06:48:26.441Z,10.68
2022-12-06T06:50:57.588Z,11.52
2022-12-06T06:53:27.329Z,10.38
2022-12-06T06:55:55.098Z,11.15
2022-12-06T06:58:22.727Z,11.50
2022-12-06T07:00:55.031Z,10.63
2022-12-06T07:03:23.578Z,11.38
2022-12-06T07:06:00.634Z,9.98
2022-12-06T07:08:28.942Z,11.20
2022-12-06T07:10:56.709Z,10.68
2022-12-06T07:13:25.064Z,10.27
2022-12-06T07:15:52.877Z,10.65
2022-12-06T07:18:20.822Z,11.82
2022-12-06T07:20:48.892Z,11.10
2022-12-06T07:23:16.372Z,10.98
2022-12-06T07:25:43.629Z,11.10
2022-12-06T07:28:10.875Z,10.23
2022-12-06T07:30:38.205Z,10.73
2022-12-06T07:33:05.576Z,11.30
2022-12-06T07:36:03.680Z,10.73
2022-12-06T07:38:20.536Z,11.88
2022-12-06T07:41:03.944Z,10.57
2022-12-06T07:43:50.099Z,9.88
2022-12-06T07:46:17.546Z,11.07
2022-12-06T07:48:44.959Z,11.35
2022-12-06T07:51:12.255Z,10.65
2022-12-06T07:53:39.574Z,10.75
2022-12-06T07:56:08.093Z,11.90
2022-12-06T07:58:35.416Z,11.30
2022-12-06T08:01:04.007Z,10.82
2022-12-06T08:03:31.619Z,11.93
2022-12-06T08:05:58.866Z,10.90
2022-12-06T08:08:28.839Z,10.18
2022-12-06T08:11:03.403Z,10.93
2022-12-06T08:13:30.787Z,9.75
2022-12-06T08:15:58.528Z,10.50
2022-12-06T08:18:26.059Z,11.13
2022-12-06T08:20:53.349Z,10.25
2022-12-06T08:23:20.628Z,10.13
2022-12-06T08:25:58.925Z,10.57
2022-12-06T08:28:27.797Z,10.15
2022-12-06T08:31:01.304Z,10.18
2022-12-06T08:33:33.306Z,10.20
2022-12-06T08:36:00.581Z,10.13
2022-12-06T08:38:28.545Z,9.25
2022-12-06T08:40:55.792Z,9.35
2022-12-06T08:43:23.015Z,9.60
2022-12-06T08:45:52.141Z,9.57
2022-12-06T08:48:19.491Z,10.57
2022-12-06T08:50:46.810Z,9.23
2022-12-06T08:53:14.147Z,9.85
2022-12-06T08:55:41.580Z,10.32
2022-12-06T08:58:08.843Z,9.10
2022-12-06T09:00:36.164Z,9.63
2022-12-06T09:03:03.502Z,9.10
2022-12-06T09:05:31.212Z,9.57
2022-12-06T09:07:58.600Z,9.52
2022-12-06T09:10:25.887Z,10.05
2022-12-06T09:12:53.160Z,9.35
2022-12-06T09:15:20.436Z,9.32
2022-12-06T09:17:47.894Z,9.50
2022-12-06T09:20:18.135Z,9.02
2022-12-06T09:22:45.604Z,8.38
2022-12-06T09:25:12.874Z,8.95
2022-12-06T09:27:40.157Z,8.80
2022-12-06T09:30:08.170Z,8.80
2022-12-06T09:32:35.519Z,8.63
2022-12-06T09:35:02.923Z,8.88
2022-12-06T09:37:30.415Z,8.38
2022-12-06T09:40:01.282Z,8.88
2022-12-06T09:42:54.816Z,7.95
2022-12-06T09:45:31.289Z,8.32
2022-12-06T09:48:06.398Z,8.20
2022-12-06T09:50:57.959Z,8.00
2022-12-06T09:53:50.246Z,8.65
2022-12-06T09:56:35.598Z,7.85
2022-12-06T09:59:46.817Z,7.50
2022-12-06T10:02:34.248Z,7.88
2022-12-06T10:05:15.264Z,7.10
2022-12-06T10:08:05.037Z,6.65
2022-12-06T10:10:55.099Z,6.93
2022-12-06T10:13:46.711Z,7.00
2022-12-06T10:16:29.482Z,6.38
2022-12-06T10:19:29.430Z,6.70
2022-12-06T10:22:02.808Z,7.18
2022-12-06T10:24:30.102Z,7.05
2022-12-06T10:27:08.614Z,5.75
2022-12-06T10:29:44.870Z,6.15
2022-12-06T10:32:50.995Z,6.03
2022-12-06T10:35:38.626Z,6.65
2022-12-06T10:38:16.897Z,6.55
2022-12-06T10:40:59.421Z,6.13
2022-12-06T10:44:13.744Z,6.30
2022-12-06T10:47:04.634Z,6.50
2022-12-06T10:50:05.466Z,5.93
2022-12-06T10:52:44.417Z,5.82
2022-12-06T10:55:11.979Z,5.85
2022-12-06T10:58:09.550Z,6.03
2022-12-06T11:00:54.955Z,6.53
2022-12-06T11:03:42.457Z,6.20
2022-12-06T11:06:28.093Z,6.25
2022-12-06T11:09:19.579Z,6.15
2022-12-06T11:11:50.258Z,5.40
2022-12-06T11:14:24.524Z,5.43
2022-12-06T11:17:05.774Z,5.90
2022-12-06T11:19:44.142Z,5.43
2022-12-06T11:22:47.500Z,5.28
2022-12-06T11:25:18.311Z,5.35
2022-12-06T11:27:52.398Z,5.95
2022-12-06T11:30:20.917Z,6.05
2022-12-06T11:32:52.664Z,5.97
2022-12-06T11:35:26.516Z,6.53
2022-12-06T11:38:00.925Z,5.50
2022-12-06T11:40:32.452Z,5.30
2022-12-06T11:43:01.926Z,4.70
2022-12-06T11:45:34.579Z,5.18
2022-12-06T11:48:17.216Z,4.97
2022-12-06T11:50:46.390Z,4.63
2022-12-06T11:53:33.406Z,4.38
2022-12-06T11:56:15.153Z,4.32
2022-12-06T11:58:58.927Z,4.40
2022-12-06T12:01:46.783Z,4.25
2022-12-06T12:04:23.406Z,4.10
2022-12-06T12:07:09.469Z,4.40
2022-12-06T12:09:59.392Z,4.25
2022-12-06T12:13:06.436Z,4.38
2022-12-06T12:15:34.736Z,4.38
2022-12-06T12:18:03.672Z,4.63
2022-12-06T12:20:36.213Z,4.18
2022-12-06T12:23:14.483Z,4.30
2022-12-06T12:25:44.542Z,4.30
2022-12-06T12:28:26.858Z,4.10
2022-12-06T12:30:56.203Z,3.80
2022-12-06T12:33:25.720Z,4.13
2022-12-06T12:35:56.041Z,4.20
2022-12-06T12:38:46.127Z,4.50
2022-12-06T12:41:23.318Z,5.32
2022-12-06T12:44:36.464Z,4.55
2022-12-06T12:47:05.968Z,5.10
2022-12-06T12:49:36.327Z,4.95
2022-12-06T12:57:59.551Z,4.15
2022-12-06T13:00:34.549Z,3.60
2022-12-06T13:03:35.006Z,3.47
2022-12-06T13:05:59.023Z,3.65
2022-12-06T13:08:30.821Z,3.83
2022-12-06T13:11:01.200Z,3.80
2022-12-06T13:13:41.216Z,4.15
2022-12-06T13:21:44.630Z,4.10
2022-12-06T13:24:18.104Z,3.78
2022-12-06T13:26:50.903Z,4.80
2022-12-06T13:29:21.335Z,4.07
2022-12-06T13:31:51.738Z,4.30
2022-12-06T13:34:18.918Z,3.80
2022-12-06T13:36:46.588Z,4.10
2022-12-06T13:39:32.541Z,4.00
2022-12-06T13:42:19.464Z,4.07
2022-12-06T13:45:02.135Z,3.55
2022-12-06T13:47:29.414Z,3.72
2022-12-06T13:50:02.771Z,3.53
2022-12-06T13:52:42.269Z,2.83
2022-12-06T13:55:24.683Z,2.83
2022-12-06T13:57:58.725Z,2.63
2022-12-06T14:00:29.288Z,3.55
2022-12-06T14:03:23.611Z,3.00
2022-12-06T14:06:05.081Z,2.78
2022-12-06T14:08:43.834Z,2.97
2022-12-06T14:11:16.389Z,2.88
2022-12-06T14:13:46.349Z,3.17
2022-12-06T14:16:38.751Z,3.55
2022-12-06T14:19:20.152Z,3.20
2022-12-06T14:22:02.739Z,3.20
2022-12-06T14:24:39.469Z,3.20
2022-12-06T14:27:17.743Z,4.05
2022-12-06T14:30:14.562Z,3.53
2022-12-06T14:32:47.781Z,3.05
2022-12-06T14:35:30.927Z,3.20
2022-12-06T14:38:02.125Z,3.08
2022-12-06T14:40:58.179Z,10.32
2022-12-06T14:43:27.833Z,3.50
2022-12-06T14:45:57.376Z,3.10
2022-12-06T14:48:25.072Z,2.80
2022-12-06T14:50:58.326Z,3.78
2022-12-06T14:53:34.113Z,3.78
2022-12-06T14:56:07.758Z,3.50
2022-12-06T14:58:39.707Z,4.60
2022-12-06T15:01:18.303Z,4.88
2022-12-06T15:04:01.569Z,3.80
2022-12-06T15:06:31.215Z,3.83
2022-12-06T15:08:58.497Z,5.95
2022-12-06T15:11:50.201Z,6.95
2022-12-06T15:14:29.231Z,4.82
2022-12-06T15:17:03.779Z,5.22
2022-12-06T15:19:36.494Z,4.07
2022-12-06T15:22:10.150Z,3.83
2022-12-06T15:24:37.797Z,3.70
2022-12-06T15:27:05.023Z,3.40
2022-12-06T15:29:32.344Z,4.05
2022-12-06T15:31:59.693Z,3.55
2022-12-06T15:34:31.279Z,3.97
2022-12-06T15:37:38.011Z,4.38
2022-12-06T15:39:48.939Z,4.05
2022-12-06T15:42:21.720Z,3.95
2022-12-06T15:44:50.404Z,4.80
2022-12-06T15:47:20.996Z,3.72
2022-12-06T15:49:51.549Z,4.82
2022-12-06T15:52:26.040Z,4.50
2022-12-06T15:54:53.415Z,4.80
2022-12-06T15:57:20.809Z,3.67
2022-12-06T15:59:48.081Z,5.45
2022-12-06T16:02:17.569Z,5.25
2022-12-06T16:04:45.758Z,4.60
2022-12-06T16:07:18.348Z,5.25
2022-12-06T16:09:45.831Z,5.32
2022-12-06T16:12:13.171Z,5.05
2022-12-06T16:14:40.467Z,5.18
2022-12-06T16:17:07.727Z,5.63
2022-12-06T16:19:53.736Z,5.78
2022-12-06T16:22:40.947Z,5.93
2022-12-06T16:25:08.638Z,5.30
2022-12-06T16:27:35.899Z,5.57
2022-12-06T16:30:04.958Z,5.35
2022-12-06T16:32:33.090Z,5.38
2022-12-06T16:35:00.690Z,5.88
2022-12-06T16:37:28.230Z,4.72
2022-12-06T16:39:55.523Z,5.70
2022-12-06T16:42:22.918Z,5.18
2022-12-06T16:44:53.124Z,5.57
2022-12-06T16:49:48.270Z,5.38
2022-12-06T16:52:16.677Z,5.13
2022-12-06T16:54:44.255Z,5.70
2022-12-06T16:57:12.583Z,5.90
2022-12-06T16:59:40.395Z,6.68
2022-12-06T17:02:30.024Z,6.05
2022-12-06T17:05:01.210Z,7.28
2022-12-06T17:07:29.113Z,6.85
2022-12-06T17:09:56.571Z,7.97
2022-12-06T17:12:24.155Z,7.07
2022-12-06T17:14:51.966Z,5.93
2022-12-06T17:17:21.729Z,6.72
2022-12-06T17:19:49.755Z,5.97
2022-12-06T17:22:18.613Z,6.32
2022-12-06T17:24:46.282Z,6.57
2022-12-06T17:27:14.730Z,7.13
2022-12-06T17:29:44.073Z,5.47
2022-12-06T17:32:12.382Z,6.80
2022-12-06T17:34:39.704Z,6.30
2022-12-06T17:37:07.187Z,5.75
2022-12-06T17:39:34.968Z,5.45
2022-12-06T17:42:21.146Z,5.63
2022-12-06T17:49:55.693Z,5.63
2022-12-06T17:52:22.567Z,5.97
2022-12-06T17:54:49.136Z,5.93
2022-12-06T17:57:17.396Z,5.97
2022-12-06T17:59:45.850Z,7.90
2022-12-06T18:02:16.061Z,6.85
2022-12-06T18:04:44.355Z,6.28
2022-12-06T18:15:00.998Z,6.05
2022-12-06T18:17:28.661Z,5.28
2022-12-06T18:19:55.939Z,5.80
2022-12-06T18:22:23.250Z,5.68
2022-12-06T18:24:50.646Z,6.20
2022-12-06T18:27:17.988Z,6.13
2022-12-06T18:29:45.275Z,5.88
2022-12-06T18:32:12.604Z,6.68
2022-12-06T18:34:39.884Z,7.40
2022-12-06T18:37:07.191Z,6.50
2022-12-06T18:39:34.536Z,6.85
2022-12-06T18:42:01.823Z,6.00
2022-12-06T18:44:29.259Z,6.70
2022-12-06T18:46:56.511Z,6.55
2022-12-06T18:49:23.806Z,6.53
2022-12-06T18:51:51.178Z,6.72
2022-12-06T18:54:18.741Z,6.45
2022-12-06T18:56:46.026Z,6.43
2022-12-06T18:59:13.442Z,6.88
2022-12-06T19:01:41.488Z,6.68
2022-12-06T19:04:14.232Z,6.63
2022-12-06T19:06:43.096Z,6.57
2022-12-06T19:09:13.110Z,6.93
2022-12-06T19:11:42.808Z,6.60
2022-12-06T19:14:10.619Z,6.68
2022-12-06T19:16:46.575Z,6.65
2022-12-06T19:19:18.006Z,6.90
2022-12-06T19:21:46.733Z,7.15
2022-12-06T19:24:16.643Z,6.82
2022-12-06T19:26:44.604Z,7.05
2022-12-06T19:29:12.782Z,7.78
2022-12-06T19:31:40.139Z,6.47
2022-12-06T19:34:13.698Z,6.97
2022-12-06T19:36:40.965Z,8.27
2022-12-06T19:39:10.291Z,7.63
2022-12-06T19:41:57.531Z,7.25
2022-12-06T19:44:26.513Z,7.05
2022-12-06T19:46:53.810Z,7.40
2022-12-06T19:49:24.190Z,6.80
2022-12-06T19:51:52.226Z,7.53
2022-12-06T19:54:22.607Z,7.47
2022-12-06T19:56:53.131Z,6.50
2022-12-06T19:59:21.728Z,7.20
2022-12-06T20:01:50.196Z,7.07
2022-12-06T20:04:29.602Z,7.13
2022-12-06T20:06:57.794Z,7.65
2022-12-06T20:09:27.025Z,7.15
2022-12-06T20:12:01.604Z,7.50
2022-12-06T20:14:32.977Z,7.78
2022-12-06T20:17:00.547Z,7.15
2022-12-06T20:19:28.549Z,8.20
2022-12-06T20:21:55.891Z,7.80
2022-12-06T20:24:23.790Z,7.32
2022-12-06T20:26:53.835Z,7.72
2022-12-06T20:29:22.142Z,8.40
2022-12-06T20:31:51.229Z,8.40
2022-12-06T20:34:19.799Z,8.38
2022-12-06T20:36:47.527Z,9.85
2022-12-06T20:39:21.472Z,9.20
2022-12-06T20:41:49.538Z,8.60
2022-12-06T20:44:18.215Z,8.93
2022-12-06T20:46:45.797Z,9.40
2022-12-06T20:49:13.997Z,9.75
2022-12-06T20:51:41.476Z,9.15
2022-12-06T20:54:11.148Z,10.07
2022-12-06T20:56:39.361Z,9.18
2022-12-06T20:59:08.038Z,9.48
2022-12-06T21:01:38.786Z,9.68
2022-12-06T21:04:06.764Z,9.57
2022-12-06T21:06:34.191Z,9.57
2022-12-06T21:09:01.658Z,9.70
2022-12-06T21:11:30.311Z,10.18
2022-12-06T21:13:58.084Z,9.75
2022-12-06T21:16:30.503Z,9.98
2022-12-06T21:19:04.615Z,9.50
2022-12-06T21:21:36.998Z,10.50
2022-12-06T21:24:11.499Z,10.85
2022-12-06T21:26:38.982Z,10.20
2022-12-06T21:29:06.404Z,10.90
2022-12-06T21:31:36.579Z,10.68
2022-12-06T21:34:04.262Z,11.35
2022-12-06T21:36:31.836Z,11.20
2022-12-06T21:38:59.433Z,11.05
2022-12-06T21:41:27.294Z,10.82
2022-12-06T21:43:54.710Z,10.80
2022-12-06T21:46:24.928Z,11.38
2022-12-06T21:48:57.016Z,11.23
2022-12-06T21:51:27.858Z,12.02
2022-12-06T21:53:55.974Z,11.13
2022-12-06T21:56:25.878Z,12.77
2022-12-06T21:58:54.124Z,12.88
2022-12-06T22:01:24.497Z,13.85
2022-12-06T22:03:53.330Z,13.63
2022-12-06T22:06:21.283Z,12.70
2022-12-06T22:08:54.906Z,13.38
2022-12-06T22:11:22.210Z,13.30
2022-12-06T22:13:49.752Z,13.57
2022-12-06T22:16:17.356Z,12.85
2022-12-06T22:18:46.329Z,13.00
2022-12-06T22:21:19.478Z,13.05
2022-12-06T22:23:47.477Z,12.60
2022-12-06T22:26:17.519Z,12.63
2022-12-06T22:28:45.739Z,12.27
2022-12-06T22:31:19.196Z,12.90
2022-12-06T22:33:47.871Z,12.60
2022-12-06T22:36:16.182Z,13.00
2022-12-06T22:38:43.713Z,13.98
2022-12-06T22:41:11.330Z,13.20
2022-12-06T22:43:38.848Z,13.38
2022-12-06T22:46:08.782Z,13.90
2022-12-06T22:48:36.433Z,12.10
2022-12-06T22:51:19.279Z,13.75
2022-12-06T22:54:09.358Z,13.65
2022-12-06T22:56:37.006Z,13.65
2022-12-06T22:59:04.663Z,13.30
2022-12-06T23:01:34.406Z,13.82
2022-12-06T23:04:04.533Z,13.85
2022-12-06T23:06:32.518Z,13.63
2022-12-06T23:08:59.926Z,14.20
2022-12-06T23:11:29.798Z,13.43
2022-12-06T23:13:57.902Z,14.77
2022-12-06T23:16:27.814Z,13.48
2022-12-06T23:18:55.927Z,13.88
2022-12-06T23:21:32.427Z,14.25
2022-12-06T23:24:02.544Z,13.55
2022-12-06T23:26:33.060Z,14.18
2022-12-06T23:29:00.961Z,13.57
2022-12-06T23:31:31.116Z,14.18
2022-12-06T23:34:01.090Z,13.57
2022-12-06T23:36:30.492Z,13.45
2022-12-06T23:38:57.955Z,13.90
2022-12-06T23:41:28.345Z,14.35
2022-12-06T23:43:56.938Z,12.82
2022-12-06T23:46:27.252Z,14.32
2022-12-06T23:48:54.861Z,14.20
2022-12-06T23:51:27.743Z,14.50
2022-12-06T23:53:57.409Z,14.63
2022-12-06T23:56:28.255Z,14.43
2022-12-06T23:58:55.883Z,14.82
